createdAt,value
2018-05-13T00:00:35.326Z,80.00
2018-05-13T00:03:04.148Z,80.80
2018-05-13T00:05:33.365Z,80.90
2018-05-13T00:08:01.511Z,80.70
2018-05-13T00:10:29.578Z,81.00
2018-05-13T00:12:57.704Z,81.10
2018-05-13T00:15:25.778Z,81.20
2018-05-13T00:17:53.854Z,81.50
2018-05-13T00:20:22.590Z,81.80
2018-05-13T00:22:51.840Z,82.00
2018-05-13T00:25:19.889Z,82.00
2018-05-13T00:27:47.981Z,82.20
2018-05-13T00:30:16.031Z,82.30
2018-05-13T00:32:44.131Z,82.50
2018-05-13T00:35:13.413Z,82.70
2018-05-13T00:37:41.511Z,82.80
2018-05-13T00:42:38.922Z,83.00
2018-05-13T00:45:07.398Z,83.20
2018-05-13T00:47:35.433Z,83.30
2018-05-13T00:50:03.580Z,83.40
2018-05-13T00:52:33.373Z,83.70
2018-05-13T00:55:01.467Z,83.80
2018-05-13T00:57:29.543Z,83.90
2018-05-13T00:59:58.521Z,84.00
2018-05-13T01:02:26.630Z,84.20
2018-05-13T01:04:55.474Z,84.90
2018-05-13T01:07:23.998Z,84.50
2018-05-13T01:09:55.055Z,84.90
2018-05-13T01:12:23.109Z,84.50
2018-05-13T01:14:51.951Z,85.40
2018-05-13T01:17:20.038Z,84.90
2018-05-13T01:19:48.094Z,85.10
2018-05-13T01:22:16.159Z,85.30
2018-05-13T01:24:44.233Z,85.40
2018-05-13T01:27:12.324Z,85.80
2018-05-13T01:29:44.832Z,85.70
2018-05-13T01:32:15.386Z,86.20
2018-05-13T01:34:43.486Z,85.80
2018-05-13T01:37:11.571Z,86.20
2018-05-13T01:39:39.650Z,86.50
2018-05-13T01:42:08.487Z,86.60
2018-05-13T01:44:37.369Z,87.40
2018-05-13T01:47:06.216Z,87.60
2018-05-13T01:49:34.313Z,87.20
2018-05-13T01:52:02.374Z,87.40
2018-05-13T01:54:30.454Z,87.70
2018-05-13T01:56:58.522Z,87.90
2018-05-13T01:59:26.661Z,88.10
2018-05-13T02:01:54.670Z,88.10
2018-05-13T02:04:22.762Z,88.40
2018-05-13T02:06:51.598Z,89.00
2018-05-13T02:09:19.692Z,88.80
2018-05-13T02:11:47.749Z,88.80
2018-05-13T02:14:15.838Z,88.80
2018-05-13T02:16:43.928Z,88.80
2018-05-13T02:21:42.097Z,89.30
2018-05-13T02:24:10.185Z,89.60
2018-05-13T02:26:38.937Z,90.00
2018-05-13T02:29:07.040Z,90.00
2018-05-13T02:31:35.139Z,90.20
2018-05-13T02:34:03.991Z,90.50
2018-05-13T02:36:32.051Z,90.40
2018-05-13T02:39:00.139Z,90.50
2018-05-13T02:41:28.186Z,90.60
2018-05-13T02:43:56.263Z,90.70
2018-05-13T02:46:24.353Z,90.80
2018-05-13T02:48:52.414Z,90.80
2018-05-13T02:51:20.462Z,91.00
2018-05-13T02:53:48.558Z,91.10
2018-05-13T02:56:21.049Z,91.20
2018-05-13T02:58:50.653Z,91.30
2018-05-13T03:01:19.133Z,91.40
2018-05-13T03:03:47.197Z,91.40
2018-05-13T03:06:15.277Z,91.60
2018-05-13T03:08:43.390Z,91.70
2018-05-13T03:11:11.459Z,91.80
2018-05-13T03:13:39.512Z,91.80
2018-05-13T03:16:08.351Z,92.10
2018-05-13T03:18:37.420Z,92.00
2018-05-13T03:21:05.476Z,92.00
2018-05-13T03:23:34.246Z,92.10
2018-05-13T03:26:03.097Z,92.30
2018-05-13T03:28:32.027Z,92.20
2018-05-13T03:31:00.114Z,92.20
2018-05-13T03:33:28.992Z,92.50
2018-05-13T03:35:57.066Z,92.30
2018-05-13T03:38:25.542Z,92.30
2018-05-13T03:40:54.374Z,92.60
2018-05-13T03:43:22.461Z,92.40
2018-05-13T03:45:50.525Z,92.40
2018-05-13T03:48:18.639Z,92.40
2018-05-13T03:50:46.673Z,92.40
2018-05-13T03:53:14.758Z,92.40
2018-05-13T03:55:42.821Z,92.50
2018-05-13T03:58:10.924Z,92.50
2018-05-13T04:00:39.014Z,92.50
2018-05-13T04:03:07.850Z,92.40
2018-05-13T04:05:35.958Z,92.30
2018-05-13T04:11:31.229Z,92.30
2018-05-13T04:14:11.200Z,92.30
2018-05-13T04:16:39.267Z,92.40
2018-05-13T04:19:07.333Z,92.50
2018-05-13T04:21:35.394Z,92.50
2018-05-13T04:24:03.465Z,92.40
2018-05-13T04:26:31.529Z,92.40
2018-05-13T04:28:59.609Z,92.30
2018-05-13T04:31:28.065Z,92.20
2018-05-13T04:33:56.105Z,92.20
2018-05-13T04:36:24.197Z,91.90
2018-05-13T04:38:52.261Z,91.90
2018-05-13T04:41:20.310Z,91.80
2018-05-13T04:43:48.402Z,91.50
2018-05-13T04:46:16.451Z,91.40
2018-05-13T04:48:44.538Z,91.30
2018-05-13T04:51:13.364Z,91.10
2018-05-13T04:53:41.438Z,91.10
2018-05-13T04:56:09.507Z,90.90
2018-05-13T04:58:37.585Z,91.10
2018-05-13T05:01:06.534Z,90.70
2018-05-13T05:03:34.639Z,90.70
2018-05-13T05:06:03.477Z,90.70
2018-05-13T05:08:31.566Z,90.50
2018-05-13T05:10:59.635Z,90.50
2018-05-13T05:13:27.760Z,90.60
2018-05-13T05:15:55.854Z,90.30
2018-05-13T05:18:23.891Z,90.00
2018-05-13T05:20:51.985Z,89.60
2018-05-13T05:23:20.098Z,89.50
2018-05-13T05:25:48.206Z,89.30
2018-05-13T05:28:17.039Z,89.70
2018-05-13T05:30:45.131Z,89.10
2018-05-13T05:33:13.189Z,83.60
2018-05-13T05:35:41.386Z,81.80
2018-05-13T05:38:09.414Z,78.20
2018-05-13T05:40:37.466Z,76.50
2018-05-13T05:43:05.530Z,74.00
2018-05-13T05:45:33.630Z,70.70
2018-05-13T05:48:01.679Z,67.00
2018-05-13T05:50:29.749Z,63.30
2018-05-13T05:52:57.831Z,60.30
2018-05-13T05:55:25.920Z,58.40
2018-05-13T05:57:54.010Z,58.70
2018-05-13T06:00:22.100Z,56.20
2018-05-13T06:02:50.154Z,53.60
2018-05-13T06:05:19.756Z,51.60
2018-05-13T06:07:47.846Z,50.00
2018-05-13T06:10:15.935Z,50.60
2018-05-13T06:12:43.973Z,49.10
2018-05-13T06:15:13.566Z,47.60
2018-05-13T06:17:41.659Z,47.10
2018-05-13T06:20:09.742Z,45.30
2018-05-13T06:22:37.870Z,45.10
2018-05-13T06:25:05.948Z,43.50
2018-05-13T06:27:34.058Z,43.80
2018-05-13T06:30:02.287Z,40.50
2018-05-13T06:32:31.521Z,39.90
2018-05-13T06:34:59.601Z,38.80
2018-05-13T06:37:27.723Z,37.80
2018-05-13T06:39:55.773Z,37.90
2018-05-13T06:42:24.598Z,38.00
2018-05-13T06:44:52.703Z,38.00
2018-05-13T06:47:20.815Z,37.70
2018-05-13T06:49:48.862Z,36.20
2018-05-13T06:52:16.956Z,36.60
2018-05-13T06:54:45.062Z,35.50
2018-05-13T06:57:13.139Z,35.10
2018-05-13T06:59:41.178Z,35.10
2018-05-13T07:02:09.280Z,33.80
2018-05-13T07:04:37.380Z,32.60
2018-05-13T07:07:05.438Z,31.00
2018-05-13T07:09:33.541Z,30.70
2018-05-13T07:12:02.391Z,30.20
2018-05-13T07:14:30.466Z,29.00
2018-05-13T07:16:58.549Z,29.30
2018-05-13T07:19:26.603Z,29.50
2018-05-13T07:21:55.462Z,28.70
2018-05-13T07:24:23.537Z,28.80
2018-05-13T07:26:51.622Z,29.10
2018-05-13T07:29:19.690Z,28.30
2018-05-13T07:31:47.796Z,28.40
2018-05-13T07:34:16.757Z,28.60
2018-05-13T07:36:44.852Z,28.80
2018-05-13T07:39:12.924Z,29.20
2018-05-13T07:41:40.975Z,29.70
2018-05-13T07:44:09.150Z,29.90
2018-05-13T07:46:37.223Z,29.90
2018-05-13T07:49:05.294Z,29.50
2018-05-13T07:51:33.357Z,29.90
2018-05-13T07:54:01.458Z,29.30
2018-05-13T07:56:29.554Z,28.40
2018-05-13T07:58:57.577Z,28.10
2018-05-13T08:01:25.645Z,28.10
2018-05-13T08:03:53.726Z,27.40
2018-05-13T08:06:21.792Z,26.80
2018-05-13T08:08:49.842Z,27.20
2018-05-13T08:11:17.932Z,24.90
2018-05-13T08:13:46.051Z,24.30
2018-05-13T08:16:14.117Z,24.70
2018-05-13T08:18:42.196Z,24.50
2018-05-13T08:21:10.281Z,25.20
2018-05-13T08:23:39.117Z,25.40
2018-05-13T08:26:07.173Z,24.00
2018-05-13T08:28:35.241Z,24.40
2018-05-13T08:31:03.404Z,23.30
2018-05-13T08:33:32.202Z,24.40
2018-05-13T08:36:00.276Z,24.60
2018-05-13T08:38:28.348Z,24.60
2018-05-13T08:40:57.190Z,24.50
2018-05-13T08:43:25.287Z,24.80
2018-05-13T08:45:54.107Z,25.30
2018-05-13T08:48:22.223Z,25.20
2018-05-13T08:50:50.232Z,24.60
2018-05-13T08:53:18.311Z,24.30
2018-05-13T08:55:47.594Z,24.70
2018-05-13T08:58:15.670Z,24.20
2018-05-13T09:00:43.847Z,24.90
2018-05-13T09:03:11.926Z,25.30
2018-05-13T09:05:39.988Z,23.90
2018-05-13T09:08:08.115Z,23.60
2018-05-13T09:10:36.743Z,23.80
2018-05-13T09:13:06.313Z,24.60
2018-05-13T09:15:36.225Z,23.80
2018-05-13T09:18:05.057Z,23.10
2018-05-13T09:20:34.015Z,24.20
2018-05-13T09:23:02.097Z,23.10
2018-05-13T09:25:30.562Z,22.90
2018-05-13T09:27:58.668Z,22.40
2018-05-13T09:30:26.762Z,22.30
2018-05-13T09:32:54.913Z,22.30
2018-05-13T09:35:23.349Z,21.90
2018-05-13T09:37:51.414Z,22.30
2018-05-13T09:40:19.477Z,21.40
2018-05-13T09:42:47.590Z,21.00
2018-05-13T09:45:16.087Z,21.10
2018-05-13T09:47:44.162Z,21.80
2018-05-13T09:50:13.007Z,21.70
2018-05-13T09:52:41.067Z,21.70
2018-05-13T09:55:09.226Z,20.50
2018-05-13T09:57:38.164Z,19.80
2018-05-13T10:00:06.147Z,19.70
2018-05-13T10:02:35.019Z,20.50
2018-05-13T10:05:03.120Z,20.50
2018-05-13T10:07:31.743Z,20.40
2018-05-13T10:09:59.853Z,21.10
2018-05-13T10:12:32.285Z,21.60
2018-05-13T10:15:01.615Z,21.60
2018-05-13T10:17:29.711Z,21.60
2018-05-13T10:19:57.805Z,21.70
2018-05-13T10:22:25.843Z,23.30
2018-05-13T10:24:53.914Z,24.50
2018-05-13T10:27:22.057Z,25.00
2018-05-13T10:29:50.469Z,25.00
2018-05-13T10:32:19.306Z,25.90
2018-05-13T10:34:48.157Z,26.20
2018-05-13T10:37:17.008Z,27.00
2018-05-13T10:39:45.841Z,26.60
2018-05-13T10:42:14.659Z,26.20
2018-05-13T10:44:43.498Z,26.50
2018-05-13T10:47:11.990Z,26.40
2018-05-13T10:49:40.807Z,26.10
2018-05-13T10:52:08.841Z,25.50
2018-05-13T10:54:37.710Z,26.10
2018-05-13T10:57:06.574Z,26.70
2018-05-13T10:59:35.075Z,27.10
2018-05-13T11:02:03.371Z,27.30
2018-05-13T11:04:31.444Z,28.00
2018-05-13T11:07:00.070Z,28.60
2018-05-13T11:09:28.136Z,29.10
2018-05-13T11:11:56.975Z,29.30
2018-05-13T11:14:25.080Z,29.30
2018-05-13T11:16:53.166Z,29.30
2018-05-13T11:19:21.238Z,30.00
2018-05-13T11:21:50.082Z,29.20
2018-05-13T11:24:18.169Z,28.10
2018-05-13T11:26:46.306Z,28.60
2018-05-13T11:29:15.113Z,28.90
2018-05-13T11:31:43.183Z,28.80
2018-05-13T11:34:11.271Z,28.40
2018-05-13T11:36:39.855Z,28.30
2018-05-13T11:39:07.920Z,28.00
2018-05-13T11:41:36.022Z,28.00
2018-05-13T11:44:04.150Z,28.50
2018-05-13T11:46:32.229Z,28.30
2018-05-13T11:49:00.302Z,28.70
2018-05-13T11:51:28.407Z,28.90
2018-05-13T11:53:56.482Z,28.90
2018-05-13T11:56:25.420Z,30.00
2018-05-13T11:58:53.406Z,29.60
2018-05-13T12:01:21.485Z,29.60
2018-05-13T12:03:49.646Z,29.80
2018-05-13T12:06:17.714Z,29.40
2018-05-13T12:08:45.784Z,29.60
2018-05-13T12:11:13.867Z,30.20
2018-05-13T12:13:41.933Z,30.00
2018-05-13T12:16:10.792Z,30.00
2018-05-13T12:18:38.848Z,30.00
2018-05-13T12:21:06.985Z,30.10
2018-05-13T12:23:35.003Z,29.40
2018-05-13T12:26:03.062Z,29.70
2018-05-13T12:28:31.133Z,29.90
2018-05-13T12:30:59.974Z,31.20
2018-05-13T12:33:28.063Z,30.00
2018-05-13T12:35:56.112Z,30.10
2018-05-13T12:38:24.188Z,29.90
2018-05-13T12:40:52.225Z,29.80
2018-05-13T12:43:20.283Z,30.00
2018-05-13T12:45:48.358Z,29.80
2018-05-13T12:48:16.451Z,30.60
2018-05-13T12:50:45.273Z,31.80
2018-05-13T12:53:13.354Z,32.40
2018-05-13T12:55:41.400Z,33.50
2018-05-13T12:58:09.508Z,32.40
2018-05-13T13:00:37.560Z,32.50
2018-05-13T13:03:05.605Z,32.20
2018-05-13T13:05:33.697Z,32.20
2018-05-13T13:08:01.724Z,32.00
2018-05-13T13:10:29.797Z,32.60
2018-05-13T13:12:58.647Z,32.60
2018-05-13T13:15:26.709Z,31.70
2018-05-13T13:17:54.778Z,31.50
2018-05-13T13:20:22.847Z,32.30
2018-05-13T13:22:50.922Z,32.10
2018-05-13T13:25:18.997Z,32.40
2018-05-13T13:27:47.069Z,31.70
2018-05-13T13:30:16.054Z,31.90
2018-05-13T13:32:44.851Z,31.50
2018-05-13T13:35:13.317Z,31.70
2018-05-13T13:37:41.391Z,32.60
2018-05-13T13:40:09.557Z,31.60
2018-05-13T13:42:38.201Z,30.90
2018-05-13T13:45:08.079Z,31.50
2018-05-13T13:47:36.118Z,31.80
2018-05-13T13:50:06.630Z,31.40
2018-05-13T13:52:34.695Z,31.40
2018-05-13T13:55:02.771Z,32.30
2018-05-13T13:57:30.823Z,32.90
2018-05-13T13:59:59.669Z,32.40
2018-05-13T14:02:27.744Z,31.90
2018-05-13T14:04:55.827Z,31.80
2018-05-13T14:07:23.855Z,32.00
2018-05-13T14:09:51.938Z,33.00
2018-05-13T14:12:20.004Z,31.80
2018-05-13T14:14:48.091Z,32.10
2018-05-13T14:17:16.149Z,30.90
2018-05-13T14:19:44.211Z,31.30
2018-05-13T14:22:12.280Z,31.90
2018-05-13T14:24:40.350Z,32.30
2018-05-13T14:27:08.423Z,31.90
2018-05-13T14:29:36.517Z,32.20
2018-05-13T14:32:04.596Z,32.10
2018-05-13T14:34:32.650Z,32.10
2018-05-13T14:37:01.255Z,32.90
2018-05-13T14:39:30.130Z,32.90
2018-05-13T14:41:58.173Z,32.50
2018-05-13T14:44:26.270Z,32.60
2018-05-13T14:46:54.398Z,32.50
2018-05-13T14:49:23.235Z,32.70
2018-05-13T14:51:51.317Z,32.10
2018-05-13T14:54:19.402Z,32.20
2018-05-13T14:56:47.467Z,32.70
2018-05-13T14:59:15.920Z,33.30
2018-05-13T15:01:44.007Z,33.50
2018-05-13T15:04:13.586Z,33.60
2018-05-13T15:06:41.643Z,33.90
2018-05-13T15:09:09.714Z,33.70
2018-05-13T15:11:37.788Z,34.10
2018-05-13T15:14:05.808Z,34.10
2018-05-13T15:16:34.680Z,34.70
2018-05-13T15:19:02.719Z,34.10
2018-05-13T15:21:30.741Z,34.50
2018-05-13T15:23:58.794Z,35.10
2018-05-13T15:26:26.882Z,35.40
2018-05-13T15:28:54.943Z,35.00
2018-05-13T15:31:23.074Z,35.60
2018-05-13T15:33:51.070Z,35.80
2018-05-13T15:36:19.135Z,36.20
2018-05-13T15:38:47.191Z,36.30
2018-05-13T15:41:15.246Z,35.80
2018-05-13T15:43:44.075Z,36.50
2018-05-13T15:46:12.125Z,35.10
2018-05-13T15:48:40.199Z,35.60
2018-05-13T15:51:08.276Z,36.30
2018-05-13T15:53:36.449Z,36.80
2018-05-13T15:56:04.486Z,36.60
2018-05-13T15:58:33.312Z,37.60
2018-05-13T16:01:01.387Z,36.80
2018-05-13T16:03:29.430Z,36.90
2018-05-13T16:05:58.257Z,37.70
2018-05-13T16:08:27.266Z,37.70
2018-05-13T16:10:55.309Z,38.70
2018-05-13T16:13:23.385Z,38.00
2018-05-13T16:15:51.423Z,37.70
2018-05-13T16:18:20.268Z,36.90
2018-05-13T16:20:48.731Z,36.00
2018-05-13T16:23:16.785Z,36.00
2018-05-13T16:25:45.521Z,36.50
2018-05-13T16:28:13.558Z,36.50
2018-05-13T16:30:41.635Z,36.60
2018-05-13T16:33:09.709Z,36.30
2018-05-13T16:35:37.745Z,36.10
2018-05-13T16:38:05.815Z,36.40
2018-05-13T16:40:34.611Z,36.50
2018-05-13T16:43:02.672Z,35.50
2018-05-13T16:45:31.498Z,34.80
2018-05-13T16:48:00.470Z,35.20
2018-05-13T16:50:28.520Z,35.10
2018-05-13T16:52:57.339Z,35.80
2018-05-13T16:55:25.381Z,36.30
2018-05-13T16:57:54.213Z,37.10
2018-05-13T17:00:22.264Z,36.20
2018-05-13T17:02:50.351Z,36.30
2018-05-13T17:05:18.398Z,36.30
2018-05-13T17:07:46.467Z,36.50
2018-05-13T17:10:14.502Z,36.60
2018-05-13T17:12:42.564Z,37.30
2018-05-13T17:15:10.628Z,37.10
2018-05-13T17:17:38.682Z,37.10
2018-05-13T17:20:06.730Z,37.10
2018-05-13T17:22:34.774Z,37.70
2018-05-13T17:25:03.633Z,38.40
2018-05-13T17:27:31.705Z,38.00
2018-05-13T17:29:59.792Z,38.00
2018-05-13T17:32:27.840Z,37.90
2018-05-13T17:34:55.957Z,38.20
2018-05-13T17:37:24.815Z,39.00
2018-05-13T17:39:52.833Z,38.70
2018-05-13T17:42:20.890Z,39.20
2018-05-13T17:44:49.754Z,39.30
2018-05-13T17:47:17.806Z,38.80
2018-05-13T17:49:45.928Z,38.80
2018-05-13T17:52:13.918Z,38.70
2018-05-13T17:54:41.965Z,39.10
2018-05-13T17:57:10.903Z,39.00
2018-05-13T17:59:38.890Z,39.00
2018-05-13T18:02:06.965Z,39.10
2018-05-13T18:04:35.031Z,39.00
2018-05-13T18:07:03.099Z,38.40
2018-05-13T18:09:31.153Z,38.10
2018-05-13T18:11:59.206Z,37.70
2018-05-13T18:14:27.271Z,37.20
2018-05-13T18:16:55.338Z,36.40
2018-05-13T18:19:23.394Z,36.30
2018-05-13T18:21:51.459Z,36.20
2018-05-13T18:24:20.371Z,36.20
2018-05-13T18:26:48.426Z,36.30
2018-05-13T18:29:17.413Z,36.30
2018-05-13T18:31:46.305Z,36.40
2018-05-13T18:34:14.374Z,36.40
2018-05-13T18:36:42.438Z,36.20
2018-05-13T18:39:10.551Z,35.90
2018-05-13T18:41:39.536Z,35.10
2018-05-13T18:44:07.591Z,35.00
2018-05-13T18:46:36.417Z,34.90
2018-05-13T18:49:04.477Z,34.90
2018-05-13T18:51:32.622Z,34.40
2018-05-13T18:54:00.631Z,34.00
2018-05-13T18:56:28.734Z,33.30
2018-05-13T18:58:56.974Z,34.80
2018-05-13T19:01:25.771Z,52.40
2018-05-13T19:03:53.820Z,52.40
2018-05-13T19:06:22.720Z,55.70
2018-05-13T19:08:50.837Z,55.70
2018-05-13T19:11:18.906Z,56.80
2018-05-13T19:13:46.987Z,57.80
2018-05-13T19:16:15.069Z,58.80
2018-05-13T19:18:43.958Z,60.50
2018-05-13T19:21:12.034Z,60.30
2018-05-13T19:23:40.135Z,61.10
2018-05-13T19:26:08.937Z,62.10
2018-05-13T19:28:37.013Z,64.00
2018-05-13T19:31:05.095Z,62.40
2018-05-13T19:33:33.159Z,63.00
2018-05-13T19:36:01.247Z,63.40
2018-05-13T19:38:29.310Z,63.60
2018-05-13T19:40:57.457Z,64.00
2018-05-13T19:43:26.365Z,64.70
2018-05-13T19:45:54.455Z,65.10
2018-05-13T19:48:23.833Z,65.90
2018-05-13T19:50:51.954Z,66.30
2018-05-13T19:53:20.019Z,66.60
2018-05-13T19:55:48.135Z,63.50
2018-05-13T19:58:16.984Z,68.90
2018-05-13T20:00:45.086Z,68.80
2018-05-13T20:03:14.098Z,70.00
2018-05-13T20:05:42.866Z,70.30
2018-05-13T20:08:11.300Z,70.00
2018-05-13T20:10:40.094Z,70.40
2018-05-13T20:13:08.149Z,70.90
2018-05-13T20:15:36.372Z,71.30
2018-05-13T20:18:04.363Z,71.40
2018-05-13T20:20:32.461Z,72.20
2018-05-13T20:23:12.421Z,72.50
2018-05-13T20:25:40.501Z,73.40
2018-05-13T20:28:08.563Z,73.80
2018-05-13T20:30:36.616Z,74.20
2018-05-13T20:33:04.693Z,74.50
2018-05-13T20:35:32.755Z,75.00
2018-05-13T20:38:02.862Z,75.00
2018-05-13T20:40:30.907Z,75.30
2018-05-13T20:42:59.735Z,76.20
2018-05-13T20:45:27.793Z,75.80
2018-05-13T20:47:55.898Z,76.10
2018-05-13T20:50:23.951Z,76.60
2018-05-13T20:52:52.013Z,76.90
2018-05-13T20:55:20.074Z,77.10
2018-05-13T20:57:48.947Z,77.60
2018-05-13T21:00:17.018Z,78.20
2018-05-13T21:02:45.834Z,78.80
2018-05-13T21:05:13.910Z,78.00
2018-05-13T21:07:41.976Z,78.00
2018-05-13T21:10:10.035Z,78.20
2018-05-13T21:12:38.862Z,77.50
2018-05-13T21:15:06.912Z,78.40
2018-05-13T21:17:34.987Z,78.70
2018-05-13T21:20:03.147Z,79.00
2018-05-13T21:22:31.218Z,79.30
2018-05-13T21:25:00.805Z,80.00
2018-05-13T21:27:29.659Z,80.20
2018-05-13T21:29:57.730Z,80.10
2018-05-13T21:32:25.779Z,80.20
2018-05-13T21:34:53.909Z,80.60
2018-05-13T21:37:21.971Z,80.80
2018-05-13T21:39:50.031Z,80.80
2018-05-13T21:42:18.106Z,81.00
2018-05-13T21:44:46.212Z,81.10
2018-05-13T21:47:15.046Z,81.60
2018-05-13T21:49:43.098Z,81.50
2018-05-13T21:52:11.246Z,81.60
2018-05-13T21:54:40.096Z,82.20
2018-05-13T21:57:08.095Z,82.10
2018-05-13T21:59:36.958Z,82.70
2018-05-13T22:02:05.001Z,82.60
2018-05-13T22:04:33.101Z,82.90
2018-05-13T22:07:01.199Z,83.00
2018-05-13T22:09:30.038Z,83.40
2018-05-13T22:11:58.129Z,83.30
2018-05-13T22:14:26.225Z,83.40
2018-05-13T22:16:55.030Z,83.70
2018-05-13T22:19:24.554Z,83.70
2018-05-13T22:21:52.691Z,83.70
2018-05-13T22:24:20.761Z,84.30
2018-05-13T22:26:48.839Z,84.50
2018-05-13T22:29:17.681Z,84.90
2018-05-13T22:31:46.598Z,84.90
2018-05-13T22:34:14.714Z,84.70
2018-05-13T22:36:43.523Z,85.30
2018-05-13T22:39:12.465Z,85.20
2018-05-13T22:41:40.550Z,85.40
2018-05-13T22:44:09.397Z,85.60
2018-05-13T22:46:38.298Z,85.60
2018-05-13T22:49:06.388Z,85.50
2018-05-13T22:51:36.005Z,85.60
2018-05-13T22:54:05.682Z,85.80
2018-05-13T22:56:36.365Z,85.80
2018-05-13T22:59:10.350Z,86.00
2018-05-13T23:01:39.160Z,86.20
2018-05-13T23:04:07.968Z,85.90
2018-05-13T23:06:36.034Z,85.80
2018-05-13T23:09:04.125Z,85.80
2018-05-13T23:11:32.281Z,85.70
2018-05-13T23:14:00.325Z,85.90
2018-05-13T23:16:29.142Z,86.50
2018-05-13T23:18:57.320Z,86.30
2018-05-13T23:21:25.423Z,86.50
2018-05-13T23:23:53.462Z,83.50
2018-05-13T23:26:21.531Z,86.50
2018-05-13T23:28:49.673Z,86.40
2018-05-13T23:31:18.482Z,86.10
2018-05-13T23:33:46.566Z,86.60
2018-05-13T23:36:14.623Z,86.50
2018-05-13T23:38:43.476Z,87.20
2018-05-13T23:41:11.562Z,87.10
2018-05-13T23:43:39.638Z,87.40
2018-05-13T23:46:07.695Z,87.50
2018-05-13T23:48:35.802Z,87.60
2018-05-13T23:51:03.880Z,87.70
2018-05-13T23:53:31.938Z,87.80
2018-05-13T23:56:00.782Z,88.50
2018-05-13T23:58:28.850Z,88.40
